Augusta Springs, VA

4:18 AM EDT on August 31, 2016 (GMT -0400)
Riverheads | | Change Station

Elev 1854 ft 38.05 °N, 79.15 °W | Updated 3 minutes ago

Overcast
Overcast
66.9 °F
Feels Like 66.9 °F
N
0.0
Wind Variable Wind from North
Gusts 0.0 mph

Today
High -- | Low -- °F
--% Chance of Precip.
Yesterday
High -- | Low -- °F
Precip. -- in
Pressure 30.10 in
Visibility 2.5 miles
Clouds Scattered Clouds 4800 ft
Scattered Clouds 5500 ft
Overcast 7000 ft
Dew Point 67 °F
Humidity 99%
Rainfall 0.00 in
Snow Depth Not available.
6:46 AM 7:47 PM
Waning Crescent, 1% visible
METAR KSHD 310755Z AUTO 00000KT 2 1/2SM BR SCT048 SCT055 OVC070 21/21 A3010 RMK AO2 LTG DSNT SE T02080206
Pressure 30.10 in
Visibility 2.5 miles
Clouds Scattered Clouds 4800 ft
Scattered Clouds 5500 ft
Overcast 7000 ft
Dew Point 67 °F
Humidity 99%
Rainfall 0.00 in
Snow Depth Not available.
6:46 AM 7:47 PM
Waning Crescent, 1% visible
METAR KSHD 310755Z AUTO 00000KT 2 1/2SM BR SCT048 SCT055 OVC070 21/21 A3010 RMK AO2 LTG DSNT SE T02080206

10-Day Weather Forecast

Almanac

Astronomy

Aug. 31, 2016 Rise Set
Actual Time
Civil Twilight
Nautical Twilight
Astronomical Twilight
Moon
Length of Visible Light
Length of Day
Tomorrow will be .
, % of the Moon is Illuminated

Today's Extremes

State Highs State Lows

Community

WunderPhotos

Upload Photos

1,936,038 photos uploaded!

WunderBlog® & News

Nearby

Air Quality

  Air Quality AQ Index Pollutant
Not available.

Snow Depth

Station Depth Elevation

Earthquake Activity

City Distance Mag. Time & Date
Minimum magnitude displayed is 2.5.

Coastal Water Temperatures

Place Temperature

Stations

Nearby Weather Stations

Station Location Temp. Windchill Dew Point Humidity Wind Precip. Elev Updated Type
                   

Watches & Warnings

There are currently no watches in effect.